createdAt,value
2019-02-14T00:00:15.424Z,0.00
2019-02-14T00:01:15.416Z,0.00
2019-02-14T00:02:15.407Z,0.00
2019-02-14T00:03:15.396Z,0.00
2019-02-14T00:04:15.450Z,0.00
2019-02-14T00:05:16.736Z,0.00
2019-02-14T00:06:15.368Z,0.00
2019-02-14T00:07:15.347Z,0.00
2019-02-14T00:08:15.345Z,0.00
2019-02-14T00:09:15.344Z,0.00
2019-02-14T00:10:15.320Z,0.00
2019-02-14T00:11:15.360Z,0.00
2019-02-14T00:12:15.293Z,0.00
2019-02-14T00:13:15.287Z,0.00
2019-02-14T00:14:15.293Z,0.00
2019-02-14T00:15:15.263Z,0.00
2019-02-14T00:16:15.248Z,0.00
2019-02-14T00:17:15.292Z,0.00
2019-02-14T00:18:15.231Z,0.00
2019-02-14T00:19:15.246Z,0.00
2019-02-14T00:20:15.203Z,0.00
2019-02-14T00:21:15.192Z,0.00
2019-02-14T00:22:15.185Z,0.00
2019-02-14T00:23:15.208Z,0.00
2019-02-14T00:24:15.184Z,0.00
2019-02-14T00:25:15.155Z,0.00
2019-02-14T00:26:15.138Z,0.00
2019-02-14T00:27:15.130Z,0.00
2019-02-14T00:28:15.112Z,0.00
2019-02-14T00:29:15.156Z,0.00
2019-02-14T00:30:15.096Z,0.00
2019-02-14T00:31:15.084Z,0.00
2019-02-14T00:32:15.078Z,0.00
2019-02-14T00:33:15.059Z,0.00
2019-02-14T00:34:15.070Z,0.00
2019-02-14T00:35:15.039Z,0.00
2019-02-14T00:36:15.066Z,0.00
2019-02-14T00:37:15.021Z,0.00
2019-02-14T00:38:15.008Z,0.00
2019-02-14T00:39:15.014Z,0.00
2019-02-14T00:40:14.982Z,0.00
2019-02-14T00:41:14.968Z,0.00
2019-02-14T00:42:15.008Z,0.00
2019-02-14T00:43:14.956Z,0.00
2019-02-14T00:44:14.959Z,0.00
2019-02-14T00:45:14.931Z,0.00
2019-02-14T00:46:14.912Z,0.00
2019-02-14T00:47:14.904Z,0.00
2019-02-14T00:48:14.891Z,0.00
2019-02-14T00:49:14.907Z,0.00
2019-02-14T00:50:14.927Z,0.00
2019-02-14T00:51:14.861Z,0.00
2019-02-14T00:52:14.846Z,0.00
2019-02-14T00:53:14.840Z,0.00
2019-02-14T00:54:14.850Z,0.00
2019-02-14T00:55:14.819Z,0.00
2019-02-14T00:56:14.804Z,0.00
2019-02-14T00:57:14.792Z,0.00
2019-02-14T00:58:14.825Z,0.00
2019-02-14T00:59:14.796Z,0.00
2019-02-14T01:00:14.762Z,0.00
2019-02-14T01:01:14.756Z,0.00
2019-02-14T01:02:14.740Z,0.00
2019-02-14T01:03:14.729Z,0.00
2019-02-14T01:04:14.736Z,0.00
2019-02-14T01:05:16.379Z,0.00
2019-02-14T01:06:14.696Z,0.00
2019-02-14T01:07:14.678Z,0.00
2019-02-14T01:08:14.669Z,0.00
2019-02-14T01:09:14.656Z,0.00
2019-02-14T01:10:14.674Z,0.00
2019-02-14T01:11:14.636Z,0.00
2019-02-14T01:12:14.679Z,0.00
2019-02-14T01:13:14.615Z,0.00
2019-02-14T01:14:14.606Z,0.00
2019-02-14T01:15:14.617Z,0.00
2019-02-14T01:16:14.631Z,0.00
2019-02-14T01:17:14.569Z,0.00
2019-02-14T01:18:14.562Z,0.00
2019-02-14T01:19:15.501Z,0.00
2019-02-14T01:20:14.617Z,0.00
2019-02-14T01:21:14.523Z,0.00
2019-02-14T01:22:14.519Z,0.00
2019-02-14T01:23:14.505Z,0.00
2019-02-14T01:24:14.488Z,0.00
2019-02-14T01:25:14.501Z,0.00
2019-02-14T01:26:14.511Z,0.00
2019-02-14T01:27:14.458Z,0.00
2019-02-14T01:28:14.449Z,0.00
2019-02-14T01:29:14.438Z,0.00
2019-02-14T01:30:14.444Z,0.00
2019-02-14T01:31:14.414Z,0.00
2019-02-14T01:32:14.425Z,0.00
2019-02-14T01:33:14.395Z,0.00
2019-02-14T01:34:14.382Z,0.00
2019-02-14T01:35:14.392Z,0.00
2019-02-14T01:36:14.355Z,0.00
2019-02-14T01:37:14.346Z,0.00
2019-02-14T01:38:14.380Z,0.00
2019-02-14T01:39:14.325Z,0.00
2019-02-14T01:40:14.338Z,0.00
2019-02-14T01:41:14.301Z,0.00
2019-02-14T01:42:14.295Z,0.00
2019-02-14T01:43:14.293Z,0.00
2019-02-14T01:44:14.299Z,0.00
2019-02-14T01:45:14.280Z,0.00
2019-02-14T01:46:14.245Z,0.00
2019-02-14T01:47:14.233Z,0.00
2019-02-14T01:48:14.227Z,0.00
2019-02-14T01:49:14.214Z,0.00
2019-02-14T01:50:14.264Z,0.00
2019-02-14T01:51:14.195Z,0.00
2019-02-14T01:52:14.180Z,0.00
2019-02-14T01:53:14.173Z,0.00
2019-02-14T01:54:14.159Z,0.00
2019-02-14T01:55:14.171Z,0.00
2019-02-14T01:56:14.169Z,0.00
2019-02-14T01:57:14.122Z,0.00
2019-02-14T01:58:14.114Z,0.00
2019-02-14T01:59:14.105Z,0.00
2019-02-14T02:00:14.114Z,0.00
2019-02-14T02:01:14.092Z,0.00
2019-02-14T02:02:14.117Z,0.00
2019-02-14T02:03:14.061Z,0.00
2019-02-14T02:04:14.052Z,0.00
2019-02-14T02:05:14.060Z,0.00
2019-02-14T02:06:14.027Z,0.00
2019-02-14T02:07:14.020Z,0.00
2019-02-14T02:08:14.003Z,0.00
2019-02-14T02:09:14.038Z,0.00
2019-02-14T02:10:14.008Z,0.00
2019-02-14T02:11:13.970Z,0.00
2019-02-14T02:12:13.962Z,0.00
2019-02-14T02:13:13.946Z,0.00
2019-02-14T02:14:13.943Z,0.00
2019-02-14T02:15:13.952Z,0.00
2019-02-14T02:16:13.964Z,0.00
2019-02-14T02:17:13.904Z,0.00
2019-02-14T02:18:13.892Z,0.00
2019-02-14T02:19:13.883Z,0.00
2019-02-14T02:20:13.892Z,0.00
2019-02-14T02:21:13.860Z,0.00
2019-02-14T02:22:13.897Z,0.00
2019-02-14T02:23:13.840Z,0.00
2019-02-14T02:24:13.826Z,0.00
2019-02-14T02:25:13.838Z,0.00
2019-02-14T02:26:13.801Z,0.00
2019-02-14T02:27:13.795Z,0.00
2019-02-14T02:28:13.816Z,0.00
2019-02-14T02:29:13.769Z,0.00
2019-02-14T02:30:13.815Z,0.00
2019-02-14T02:31:13.750Z,0.00
2019-02-14T02:32:13.741Z,0.00
2019-02-14T02:33:13.727Z,0.00
2019-02-14T02:34:13.749Z,0.00
2019-02-14T02:35:13.737Z,0.00
2019-02-14T02:36:13.695Z,0.00
2019-02-14T02:37:13.681Z,0.00
2019-02-14T02:38:13.675Z,0.00
2019-02-14T02:39:13.659Z,0.00
2019-02-14T02:40:13.672Z,0.00
2019-02-14T02:41:13.668Z,0.00
2019-02-14T02:42:13.627Z,0.00
2019-02-14T02:43:13.617Z,0.00
2019-02-14T02:44:13.610Z,0.00
2019-02-14T02:45:13.634Z,0.00
2019-02-14T02:46:13.580Z,0.00
2019-02-14T02:47:13.611Z,0.00
2019-02-14T02:48:13.589Z,0.00
2019-02-14T02:49:13.554Z,0.00
2019-02-14T02:50:13.545Z,0.00
2019-02-14T02:51:13.555Z,0.00
2019-02-14T02:52:13.513Z,0.00
2019-02-14T02:53:13.559Z,0.00
2019-02-14T02:54:13.494Z,0.00
2019-02-14T02:55:13.486Z,0.00
2019-02-14T02:56:13.491Z,0.00
2019-02-14T02:57:13.469Z,0.00
2019-02-14T02:58:13.450Z,0.00
2019-02-14T02:59:14.264Z,0.00
2019-02-14T03:00:13.469Z,0.00
2019-02-14T03:01:13.436Z,0.00
2019-02-14T03:02:13.408Z,0.00
2019-02-14T03:03:13.395Z,0.00
2019-02-14T03:04:13.384Z,0.00
2019-02-14T03:05:13.377Z,0.00
2019-02-14T03:06:13.432Z,0.00
2019-02-14T03:07:13.350Z,0.00
2019-02-14T03:08:13.339Z,0.00
2019-02-14T03:09:13.332Z,0.00
2019-02-14T03:10:13.315Z,0.00
2019-02-14T03:11:13.329Z,0.00
2019-02-14T03:12:13.337Z,0.00
2019-02-14T03:13:13.290Z,0.00
2019-02-14T03:14:13.273Z,0.00
2019-02-14T03:15:13.261Z,0.00
2019-02-14T03:16:13.276Z,0.00
2019-02-14T03:17:13.242Z,0.00
2019-02-14T03:18:13.258Z,0.00
2019-02-14T03:19:13.221Z,0.00
2019-02-14T03:20:13.208Z,0.00
2019-02-14T03:21:13.224Z,0.00
2019-02-14T03:22:13.230Z,0.00
2019-02-14T03:23:13.170Z,0.00
2019-02-14T03:24:13.168Z,0.00
2019-02-14T03:25:13.181Z,0.00
2019-02-14T03:26:13.172Z,0.00
2019-02-14T03:27:13.130Z,0.00
2019-02-14T03:28:13.124Z,0.00
2019-02-14T03:29:13.108Z,0.00
2019-02-14T03:30:13.100Z,0.00
2019-02-14T03:31:13.111Z,0.00
2019-02-14T03:32:13.079Z,0.00
2019-02-14T03:33:13.061Z,0.00
2019-02-14T03:34:13.089Z,0.00
2019-02-14T03:35:13.041Z,0.00
2019-02-14T03:36:18.886Z,0.00
2019-02-14T03:37:14.018Z,0.00
2019-02-14T03:38:13.006Z,0.00
2019-02-14T03:39:12.999Z,0.00
2019-02-14T03:40:13.021Z,0.00
2019-02-14T03:41:12.992Z,0.00
2019-02-14T03:42:12.963Z,0.00
2019-02-14T03:43:12.948Z,0.00
2019-02-14T03:44:12.940Z,0.00
2019-02-14T03:45:12.931Z,0.00
2019-02-14T03:46:12.989Z,0.00
2019-02-14T03:47:12.906Z,0.00
2019-02-14T03:48:12.897Z,0.00
2019-02-14T03:49:12.884Z,0.00
2019-02-14T03:50:12.871Z,0.00
2019-02-14T03:51:12.883Z,0.00
2019-02-14T03:52:12.892Z,0.00
2019-02-14T03:53:12.840Z,0.00
2019-02-14T03:54:12.829Z,0.00
2019-02-14T03:55:12.820Z,0.00
2019-02-14T03:56:12.827Z,0.00
2019-02-14T03:57:12.793Z,0.00
2019-02-14T03:58:12.836Z,0.00
2019-02-14T03:59:12.775Z,0.00
2019-02-14T04:00:12.762Z,0.00
2019-02-14T04:01:12.775Z,0.00
2019-02-14T04:02:12.743Z,0.00
2019-02-14T04:03:12.727Z,0.00
2019-02-14T04:04:12.767Z,0.00
2019-02-14T04:05:12.706Z,0.00
2019-02-14T04:06:12.723Z,0.00
2019-02-14T04:07:12.682Z,0.00
2019-02-14T04:08:12.682Z,0.00
2019-02-14T04:09:12.664Z,0.00
2019-02-14T04:10:12.655Z,0.00
2019-02-14T04:11:12.720Z,0.00
2019-02-14T04:12:12.628Z,0.00
2019-02-14T04:13:12.623Z,0.00
2019-02-14T04:14:12.647Z,0.00
2019-02-14T04:15:12.593Z,0.00
2019-02-14T04:16:12.614Z,0.00
2019-02-14T04:17:12.613Z,0.00
2019-02-14T04:18:12.565Z,0.00
2019-02-14T04:19:12.561Z,0.00
2019-02-14T04:20:12.542Z,0.00
2019-02-14T04:21:12.549Z,0.00
2019-02-14T04:22:12.519Z,0.00
2019-02-14T04:23:12.541Z,0.00
2019-02-14T04:24:12.494Z,0.00
2019-02-14T04:25:12.484Z,0.00
2019-02-14T04:26:12.494Z,0.00
2019-02-14T04:27:12.460Z,0.00
2019-02-14T04:28:12.454Z,0.00
2019-02-14T04:29:12.481Z,0.00
2019-02-14T04:30:12.432Z,0.00
2019-02-14T04:31:12.451Z,0.00
2019-02-14T04:32:12.408Z,0.00
2019-02-14T04:33:12.395Z,0.00
2019-02-14T04:34:12.382Z,0.00
2019-02-14T04:35:12.447Z,0.00
2019-02-14T04:36:12.367Z,0.00
2019-02-14T04:37:12.376Z,0.00
2019-02-14T04:38:12.340Z,0.00
2019-02-14T04:39:12.330Z,0.00
2019-02-14T04:40:12.319Z,0.00
2019-02-14T04:41:12.347Z,0.00
2019-02-14T04:42:12.322Z,0.00
2019-02-14T04:43:12.284Z,0.00
2019-02-14T04:44:12.277Z,0.00
2019-02-14T04:45:12.267Z,0.00
2019-02-14T04:46:12.254Z,0.00
2019-02-14T04:47:12.295Z,0.00
2019-02-14T04:48:12.232Z,0.00
2019-02-14T04:49:12.219Z,0.00
2019-02-14T04:50:12.206Z,0.00
2019-02-14T04:51:12.197Z,0.00
2019-02-14T04:52:12.209Z,0.00
2019-02-14T04:53:12.218Z,0.00
2019-02-14T04:54:12.169Z,0.00
2019-02-14T04:55:12.150Z,0.00
2019-02-14T04:56:12.141Z,0.00
2019-02-14T04:57:12.153Z,0.00
2019-02-14T04:58:12.118Z,0.00
2019-02-14T04:59:12.142Z,0.00
2019-02-14T05:00:12.099Z,0.00
2019-02-14T05:01:12.088Z,0.00
2019-02-14T05:02:12.099Z,0.00
2019-02-14T05:03:12.063Z,0.00
2019-02-14T05:04:12.054Z,0.00
2019-02-14T05:05:12.085Z,0.00
2019-02-14T05:06:12.031Z,0.00
2019-02-14T05:07:12.045Z,0.00
2019-02-14T05:08:12.012Z,0.00
2019-02-14T05:09:12.006Z,0.00
2019-02-14T05:10:11.993Z,0.00
2019-02-14T05:11:12.020Z,0.00
2019-02-14T05:12:11.985Z,0.00
2019-02-14T05:13:11.954Z,0.00
2019-02-14T05:14:11.944Z,0.00
2019-02-14T05:15:11.935Z,0.00
2019-02-14T05:16:11.920Z,0.00
2019-02-14T05:17:11.985Z,0.00
2019-02-14T05:18:11.897Z,0.00
2019-02-14T05:19:11.886Z,0.00
2019-02-14T05:20:11.875Z,0.00
2019-02-14T05:21:11.866Z,0.00
2019-02-14T05:22:11.873Z,0.00
2019-02-14T05:23:11.878Z,0.00
2019-02-14T05:24:11.832Z,0.00
2019-02-14T05:25:11.822Z,0.00
2019-02-14T05:26:11.807Z,0.00
2019-02-14T05:27:11.820Z,0.00
2019-02-14T05:28:11.788Z,0.00
2019-02-14T05:29:11.823Z,0.00
2019-02-14T05:30:11.778Z,0.00
2019-02-14T05:31:11.755Z,0.00
2019-02-14T05:32:11.774Z,0.00
2019-02-14T05:33:11.734Z,0.00
2019-02-14T05:34:11.730Z,0.00
2019-02-14T05:35:11.709Z,0.00
2019-02-14T05:36:11.742Z,0.00
2019-02-14T05:37:11.714Z,0.00
2019-02-14T05:38:11.679Z,0.00
2019-02-14T05:39:11.665Z,0.00
2019-02-14T05:40:11.655Z,0.00
2019-02-14T05:41:11.641Z,0.00
2019-02-14T05:42:11.684Z,0.00
2019-02-14T05:43:11.619Z,0.00
2019-02-14T05:44:11.607Z,0.00
2019-02-14T05:45:11.599Z,0.00
2019-02-14T05:46:11.589Z,0.00
2019-02-14T05:47:11.598Z,0.00
2019-02-14T05:48:11.603Z,0.00
2019-02-14T05:49:11.553Z,0.00
2019-02-14T05:50:11.542Z,0.00
2019-02-14T05:51:11.534Z,0.00
2019-02-14T05:52:11.541Z,0.00
2019-02-14T05:53:11.508Z,0.00
2019-02-14T05:54:11.543Z,0.00
2019-02-14T05:55:11.487Z,0.00
2019-02-14T05:56:11.476Z,0.00
2019-02-14T05:57:11.487Z,0.00
2019-02-14T05:58:11.459Z,0.00
2019-02-14T05:59:11.439Z,0.00
2019-02-14T06:00:11.475Z,0.00
2019-02-14T06:01:11.420Z,0.00
2019-02-14T06:02:11.434Z,0.00
2019-02-14T06:03:11.398Z,0.00
2019-02-14T06:04:11.384Z,0.00
2019-02-14T06:05:11.375Z,0.00
2019-02-14T06:06:11.403Z,0.00
2019-02-14T06:07:11.378Z,0.00
2019-02-14T06:08:11.345Z,0.00
2019-02-14T06:09:11.327Z,0.00
2019-02-14T06:10:11.370Z,0.00
2019-02-14T06:11:11.311Z,0.00
2019-02-14T06:12:11.360Z,0.00
2019-02-14T06:13:11.284Z,0.00
2019-02-14T06:14:11.276Z,0.00
2019-02-14T06:15:11.264Z,0.00
2019-02-14T06:16:11.254Z,0.00
2019-02-14T06:17:11.267Z,4.00
2019-02-14T06:18:11.289Z,4.00
2019-02-14T06:19:11.222Z,4.00
2019-02-14T06:20:11.214Z,4.00
2019-02-14T06:21:11.197Z,4.00
2019-02-14T06:22:11.192Z,8.00
2019-02-14T06:23:11.194Z,4.00
2019-02-14T06:24:18.196Z,4.00
2019-02-14T06:25:11.158Z,8.00
2019-02-14T06:26:18.173Z,8.00
2019-02-14T06:27:11.130Z,12.00
2019-02-14T06:28:11.140Z,16.00
2019-02-14T06:29:11.107Z,16.00
2019-02-14T06:30:11.141Z,20.00
2019-02-14T06:31:11.090Z,24.00
2019-02-14T06:32:11.077Z,32.00
2019-02-14T06:33:11.085Z,32.00
2019-02-14T06:34:11.093Z,40.00
2019-02-14T06:35:11.045Z,44.00
2019-02-14T06:36:11.109Z,56.00
2019-02-14T06:37:11.023Z,60.00
2019-02-14T06:38:11.042Z,68.00
2019-02-14T06:39:11.000Z,76.00
2019-02-14T06:40:11.014Z,92.00
2019-02-14T06:41:10.980Z,104.00
2019-02-14T06:42:10.963Z,112.00
2019-02-14T06:43:10.986Z,128.00
2019-02-14T06:44:10.943Z,144.00
2019-02-14T06:45:10.936Z,156.00
2019-02-14T06:46:10.967Z,172.00
2019-02-14T06:47:10.912Z,188.00
2019-02-14T06:48:10.916Z,204.00
2019-02-14T06:49:10.885Z,224.00
2019-02-14T06:50:10.879Z,240.00
2019-02-14T06:51:10.864Z,260.00
2019-02-14T06:52:10.889Z,280.00
2019-02-14T06:53:10.865Z,300.00
2019-02-14T06:54:10.836Z,320.00
2019-02-14T06:55:10.828Z,340.00
2019-02-14T06:56:10.809Z,364.00
2019-02-14T06:57:10.799Z,388.00
2019-02-14T06:58:12.819Z,412.00
2019-02-14T06:59:10.778Z,436.00
2019-02-14T07:00:10.765Z,460.00
2019-02-14T07:01:10.758Z,488.00
2019-02-14T07:02:10.743Z,512.00
2019-02-14T07:03:10.754Z,540.00
2019-02-14T07:04:10.776Z,568.00
2019-02-14T07:05:10.713Z,596.00
2019-02-14T07:06:10.704Z,620.00
2019-02-14T07:07:18.406Z,652.00
2019-02-14T07:08:11.695Z,676.00
2019-02-14T07:09:10.663Z,704.00
2019-02-14T07:10:10.708Z,728.00
2019-02-14T07:11:10.647Z,748.00
2019-02-14T07:12:10.633Z,768.00
2019-02-14T07:13:10.686Z,792.00
2019-02-14T07:14:10.611Z,812.00
2019-02-14T07:15:10.599Z,832.00
2019-02-14T07:16:10.619Z,852.00
2019-02-14T07:17:10.577Z,872.00
2019-02-14T07:18:10.588Z,896.00
2019-02-14T07:19:10.598Z,916.00
2019-02-14T07:20:10.539Z,944.00
2019-02-14T07:21:10.565Z,968.00
2019-02-14T07:22:10.519Z,992.00
2019-02-14T07:23:10.533Z,1016.00
2019-02-14T07:24:10.524Z,1044.00
2019-02-14T07:25:10.494Z,1068.00
2019-02-14T07:26:10.475Z,1092.00
2019-02-14T07:27:10.465Z,1112.00
2019-02-14T07:28:10.486Z,1140.00
2019-02-14T07:29:10.446Z,1172.00
2019-02-14T07:30:10.460Z,1200.00
2019-02-14T07:31:10.423Z,1224.00
2019-02-14T07:32:10.407Z,1248.00
2019-02-14T07:33:10.421Z,1272.00
2019-02-14T07:34:10.387Z,1296.00
2019-02-14T07:35:10.380Z,1316.00
2019-02-14T07:36:10.453Z,1336.00
2019-02-14T07:37:10.363Z,1360.00
2019-02-14T07:38:10.372Z,1376.00
2019-02-14T07:39:11.128Z,1400.00
2019-02-14T07:40:10.331Z,1416.00
2019-02-14T07:41:10.312Z,1424.00
2019-02-14T07:42:10.322Z,1432.00
2019-02-14T07:43:10.313Z,1452.00
2019-02-14T07:44:10.283Z,1476.00
2019-02-14T07:45:10.267Z,1468.00
2019-02-14T07:46:10.260Z,1492.00
2019-02-14T07:47:10.242Z,1524.00
2019-02-14T07:48:10.255Z,1536.00
2019-02-14T07:49:10.267Z,1548.00
2019-02-14T07:50:10.221Z,1568.00
2019-02-14T07:51:10.199Z,1580.00
2019-02-14T07:52:10.188Z,1592.00
2019-02-14T07:53:10.216Z,1604.00
2019-02-14T07:54:10.166Z,1620.00
2019-02-14T07:55:10.242Z,1636.00
2019-02-14T07:56:10.145Z,1648.00
2019-02-14T07:57:10.132Z,1660.00
2019-02-14T07:58:10.152Z,1668.00
2019-02-14T07:59:10.116Z,1684.00
2019-02-14T08:00:10.140Z,1696.00
2019-02-14T08:01:10.087Z,1704.00
2019-02-14T08:02:10.074Z,1720.00
2019-02-14T08:03:10.068Z,1728.00
2019-02-14T08:04:10.081Z,1740.00
2019-02-14T08:05:10.048Z,1752.00
2019-02-14T08:06:10.062Z,1764.00
2019-02-14T08:07:10.019Z,1772.00
2019-02-14T08:08:10.008Z,1784.00
2019-02-14T08:09:10.043Z,1800.00
2019-02-14T08:10:10.001Z,1804.00
2019-02-14T08:11:09.977Z,1792.00
2019-02-14T08:12:09.963Z,1824.00
2019-02-14T08:13:09.955Z,1832.00
2019-02-14T08:14:10.007Z,1840.00
2019-02-14T08:15:09.940Z,1848.00
2019-02-14T08:16:09.929Z,1856.00
2019-02-14T08:17:09.909Z,1860.00
2019-02-14T08:18:09.895Z,1880.00
2019-02-14T08:19:09.906Z,1880.00
2019-02-14T08:20:09.904Z,1868.00
2019-02-14T08:21:09.864Z,1888.00
2019-02-14T08:22:09.855Z,1892.00
2019-02-14T08:23:09.842Z,1896.00
2019-02-14T08:24:09.849Z,1896.00
2019-02-14T08:25:09.825Z,1904.00
2019-02-14T08:26:11.096Z,1904.00
2019-02-14T08:27:09.797Z,1932.00
2019-02-14T08:28:09.784Z,1908.00
2019-02-14T08:29:09.801Z,1928.00
2019-02-14T08:30:09.765Z,1948.00
2019-02-14T08:31:09.754Z,1952.00
2019-02-14T08:32:09.782Z,1952.00
2019-02-14T08:33:09.730Z,1952.00
2019-02-14T08:34:09.749Z,1960.00
2019-02-14T08:35:09.709Z,1968.00
2019-02-14T08:36:09.706Z,1972.00
2019-02-14T08:37:09.684Z,1976.00
2019-02-14T08:38:09.675Z,1960.00
2019-02-14T08:39:09.756Z,1988.00
2019-02-14T08:40:09.663Z,1992.00
2019-02-14T08:41:09.642Z,1992.00
2019-02-14T08:42:09.650Z,1992.00
2019-02-14T08:43:09.616Z,1996.00
2019-02-14T08:44:09.639Z,2000.00
2019-02-14T08:45:09.601Z,2004.00
2019-02-14T08:46:09.670Z,2008.00
2019-02-14T08:47:09.605Z,2016.00
2019-02-14T08:48:09.560Z,2020.00
2019-02-14T08:49:09.594Z,2024.00
2019-02-14T08:50:09.540Z,2028.00
2019-02-14T08:51:09.562Z,2028.00
2019-02-14T08:52:09.517Z,2028.00
2019-02-14T08:53:09.562Z,2032.00
2019-02-14T08:54:09.516Z,2036.00
2019-02-14T08:55:10.183Z,2036.00
2019-02-14T08:56:09.507Z,2036.00
2019-02-14T08:57:09.461Z,2040.00
2019-02-14T08:58:09.475Z,2044.00
2019-02-14T08:59:09.460Z,2044.00
2019-02-14T09:00:09.427Z,2048.00
2019-02-14T09:01:09.454Z,2052.00
2019-02-14T09:02:09.408Z,2056.00
2019-02-14T09:03:09.393Z,2056.00
2019-02-14T09:04:09.441Z,2060.00
2019-02-14T09:05:09.381Z,2064.00
2019-02-14T09:06:09.364Z,2072.00
2019-02-14T09:07:11.234Z,2072.00
2019-02-14T09:08:09.344Z,2072.00
2019-02-14T09:09:09.389Z,2080.00
2019-02-14T09:10:09.318Z,2080.00
2019-02-14T09:11:09.306Z,2084.00
2019-02-14T09:12:09.299Z,2088.00
2019-02-14T09:13:16.940Z,2092.00
2019-02-14T09:14:10.323Z,2092.00
2019-02-14T09:15:09.261Z,2096.00
2019-02-14T09:16:09.251Z,2100.00
2019-02-14T09:17:09.309Z,2104.00
2019-02-14T09:18:09.236Z,2104.00
2019-02-14T09:19:09.241Z,2108.00
2019-02-14T09:20:09.250Z,2116.00
2019-02-14T09:21:09.197Z,2116.00
2019-02-14T09:22:09.193Z,2124.00
2019-02-14T09:23:09.176Z,2124.00
2019-02-14T09:24:09.189Z,2128.00
2019-02-14T09:25:09.183Z,2128.00
2019-02-14T09:26:09.141Z,2136.00
2019-02-14T09:27:09.133Z,2140.00
2019-02-14T09:28:09.117Z,2144.00
2019-02-14T09:29:09.134Z,2144.00
2019-02-14T09:30:09.104Z,2156.00
2019-02-14T09:31:09.116Z,2156.00
2019-02-14T09:32:09.074Z,2156.00
2019-02-14T09:33:09.063Z,2156.00
2019-02-14T09:34:09.107Z,2164.00
2019-02-14T09:35:09.042Z,2172.00
2019-02-14T09:36:09.034Z,2160.00
2019-02-14T09:37:09.053Z,2156.00
2019-02-14T09:38:09.009Z,2164.00
2019-02-14T09:39:09.019Z,2176.00
2019-02-14T09:40:08.983Z,2184.00
2019-02-14T09:41:08.977Z,2204.00
2019-02-14T09:42:08.986Z,2196.00
2019-02-14T09:43:08.986Z,2216.00
2019-02-14T09:44:08.962Z,2236.00
2019-02-14T09:45:08.951Z,2244.00
2019-02-14T09:46:08.948Z,2252.00
2019-02-14T09:47:08.927Z,2256.00
2019-02-14T09:48:08.944Z,2268.00
2019-02-14T09:49:08.985Z,2272.00
2019-02-14T09:50:08.908Z,2280.00
2019-02-14T09:51:08.862Z,2288.00
2019-02-14T09:52:08.852Z,2296.00
2019-02-14T09:53:08.994Z,2308.00
2019-02-14T09:54:08.841Z,2320.00
2019-02-14T09:55:08.966Z,2332.00
2019-02-14T09:56:08.812Z,2344.00
2019-02-14T09:57:08.808Z,2352.00
2019-02-14T09:58:08.794Z,2364.00
2019-02-14T09:59:08.852Z,2376.00
2019-02-14T10:00:08.786Z,2384.00
2019-02-14T10:01:08.746Z,2396.00
2019-02-14T10:02:08.761Z,2416.00
2019-02-14T10:03:08.726Z,2432.00
2019-02-14T10:04:08.753Z,2460.00
2019-02-14T10:05:08.732Z,2504.00
2019-02-14T10:06:08.693Z,2552.00
2019-02-14T10:07:08.691Z,2608.00
2019-02-14T10:08:12.939Z,2664.00
2019-02-14T10:09:08.759Z,2716.00
2019-02-14T10:10:08.784Z,2764.00
2019-02-14T10:11:08.632Z,2788.00
2019-02-14T10:12:08.849Z,2784.00
2019-02-14T10:13:08.609Z,2772.00
2019-02-14T10:14:08.611Z,2780.00
2019-02-14T10:15:08.614Z,2788.00
2019-02-14T10:16:08.781Z,2800.00
2019-02-14T10:17:08.578Z,2832.00
2019-02-14T10:18:08.556Z,2864.00
2019-02-14T10:19:08.540Z,2912.00
2019-02-14T10:20:08.596Z,2956.00
2019-02-14T10:21:08.520Z,2988.00
2019-02-14T10:22:08.509Z,3032.00
2019-02-14T10:23:08.543Z,3080.00
2019-02-14T10:24:08.497Z,3092.00
2019-02-14T10:25:08.497Z,3116.00
2019-02-14T10:26:08.463Z,3092.00
2019-02-14T10:27:08.465Z,3088.00
2019-02-14T10:28:08.436Z,3032.00
2019-02-14T10:29:08.425Z,3044.00
2019-02-14T10:30:08.498Z,3092.00
2019-02-14T10:31:08.408Z,3112.00
2019-02-14T10:32:08.401Z,3164.00
2019-02-14T10:33:08.406Z,3316.00
2019-02-14T10:34:08.476Z,3376.00
2019-02-14T10:35:08.380Z,3408.00
2019-02-14T10:36:08.356Z,3440.00
2019-02-14T10:37:08.381Z,3464.00
2019-02-14T10:38:08.338Z,3528.00
2019-02-14T10:39:08.312Z,3616.00
2019-02-14T10:40:08.324Z,3768.00
2019-02-14T10:41:08.328Z,3868.00
2019-02-14T10:42:08.290Z,4012.00
2019-02-14T10:43:08.269Z,4172.00
2019-02-14T10:44:08.298Z,4292.00
2019-02-14T10:45:08.264Z,4312.00
2019-02-14T10:46:08.243Z,4288.00
2019-02-14T10:47:08.225Z,4256.00
2019-02-14T10:48:08.213Z,4240.00
2019-02-14T10:49:08.394Z,4216.00
2019-02-14T10:50:08.210Z,4192.00
2019-02-14T10:51:08.206Z,4168.00
2019-02-14T10:52:08.165Z,4136.00
2019-02-14T10:53:08.156Z,4048.00
2019-02-14T10:54:08.182Z,3960.00
2019-02-14T10:55:08.151Z,3860.00
2019-02-14T10:56:08.119Z,3784.00
2019-02-14T10:57:08.111Z,3676.00
2019-02-14T10:58:08.096Z,3564.00
2019-02-14T10:59:08.122Z,3444.00
2019-02-14T11:00:08.122Z,3344.00
2019-02-14T11:01:08.062Z,3232.00
2019-02-14T11:02:08.052Z,3244.00
2019-02-14T11:03:08.071Z,3188.00
2019-02-14T11:04:08.031Z,3348.00
2019-02-14T11:05:08.840Z,3356.00
2019-02-14T11:06:08.108Z,3284.00
2019-02-14T11:07:08.010Z,3204.00
2019-02-14T11:08:08.030Z,3028.00
2019-02-14T11:09:08.039Z,3052.00
2019-02-14T11:10:08.124Z,2936.00
2019-02-14T11:11:08.470Z,2872.00
2019-02-14T11:12:08.045Z,2940.00
2019-02-14T11:13:07.930Z,3004.00
2019-02-14T11:14:07.919Z,2984.00
2019-02-14T11:15:09.097Z,2968.00
2019-02-14T11:16:09.690Z,2968.00
2019-02-14T11:17:07.882Z,2960.00
2019-02-14T11:18:07.897Z,2936.00
2019-02-14T11:19:07.864Z,2924.00
2019-02-14T11:20:07.897Z,2952.00
2019-02-14T11:21:07.859Z,3004.00
2019-02-14T11:22:07.831Z,3076.00
2019-02-14T11:23:07.848Z,3156.00
2019-02-14T11:24:07.803Z,3228.00
2019-02-14T11:25:07.799Z,3256.00
2019-02-14T11:26:08.691Z,3284.00
2019-02-14T11:27:07.777Z,3360.00
2019-02-14T11:28:07.758Z,3340.00
2019-02-14T11:29:07.774Z,3360.00
2019-02-14T11:30:07.736Z,3344.00
2019-02-14T11:31:07.756Z,3424.00
2019-02-14T11:32:07.714Z,3436.00
2019-02-14T11:33:07.702Z,3440.00
2019-02-14T11:34:07.692Z,3436.00
2019-02-14T11:35:07.708Z,3400.00
2019-02-14T11:36:07.704Z,3336.00
2019-02-14T11:37:07.666Z,3312.00
2019-02-14T11:38:07.649Z,3284.00
2019-02-14T11:39:07.634Z,3192.00
2019-02-14T11:40:07.625Z,3140.00
2019-02-14T11:41:07.658Z,3056.00
2019-02-14T11:42:07.626Z,2996.00
2019-02-14T11:43:07.595Z,2904.00
2019-02-14T11:44:07.585Z,2852.00
2019-02-14T11:45:07.569Z,2844.00
2019-02-14T11:46:07.581Z,2888.00
2019-02-14T11:47:07.920Z,2916.00
2019-02-14T11:48:07.533Z,2964.00
2019-02-14T11:49:07.524Z,3008.00
2019-02-14T11:50:07.527Z,3044.00
2019-02-14T11:51:07.529Z,3068.00
2019-02-14T11:52:07.488Z,3132.00
2019-02-14T11:53:13.912Z,3228.00
2019-02-14T11:54:08.464Z,3356.00
2019-02-14T11:55:07.463Z,3500.00
2019-02-14T11:56:07.466Z,3704.00
2019-02-14T11:57:07.433Z,3896.00
2019-02-14T11:58:07.422Z,4048.00
2019-02-14T11:59:07.440Z,4200.00
2019-02-14T12:00:07.401Z,4328.00
2019-02-14T12:01:07.411Z,4392.00
2019-02-14T12:02:07.377Z,4368.00
2019-02-14T12:03:07.368Z,4304.00
2019-02-14T12:04:07.353Z,4056.00
2019-02-14T12:05:07.375Z,3812.00
2019-02-14T12:06:07.355Z,3748.00
2019-02-14T12:07:07.324Z,3628.00
2019-02-14T12:08:09.395Z,3420.00
2019-02-14T12:09:07.298Z,3228.00
2019-02-14T12:10:13.385Z,3080.00
2019-02-14T12:11:08.342Z,2964.00
2019-02-14T12:12:07.265Z,2788.00
2019-02-14T12:13:07.252Z,2844.00
2019-02-14T12:14:07.241Z,2816.00
2019-02-14T12:15:07.229Z,2784.00
2019-02-14T12:16:07.241Z,2748.00
2019-02-14T12:17:07.228Z,2696.00
2019-02-14T12:18:07.199Z,2564.00
2019-02-14T12:19:07.181Z,2492.00
2019-02-14T12:20:12.404Z,2380.00
2019-02-14T12:21:08.184Z,2436.00
2019-02-14T12:22:07.150Z,2440.00
2019-02-14T12:23:07.254Z,2428.00
2019-02-14T12:24:07.131Z,2468.00
2019-02-14T12:25:08.483Z,2572.00
2019-02-14T12:26:07.163Z,2720.00
2019-02-14T12:27:07.091Z,2836.00
2019-02-14T12:28:07.104Z,2880.00
2019-02-14T12:29:07.069Z,2868.00
2019-02-14T12:30:07.064Z,2952.00
2019-02-14T12:31:07.106Z,3088.00
2019-02-14T12:32:07.037Z,3164.00
2019-02-14T12:33:07.029Z,3240.00
2019-02-14T12:34:07.044Z,3284.00
2019-02-14T12:35:07.001Z,3424.00
2019-02-14T12:36:07.013Z,3552.00
2019-02-14T12:37:07.061Z,3644.00
2019-02-14T12:38:06.968Z,3724.00
2019-02-14T12:39:09.895Z,3772.00
2019-02-14T12:40:06.945Z,3764.00
2019-02-14T12:41:06.956Z,3720.00
2019-02-14T12:42:06.946Z,3680.00
2019-02-14T12:43:06.912Z,3624.00